createdAt,value
2018-12-06T00:04:50.912Z,5.10
2018-12-06T00:41:04.446Z,5.20
2018-12-06T01:17:26.827Z,5.30
2018-12-06T01:22:29.825Z,5.50
2018-12-06T01:27:38.825Z,5.60
2018-12-06T01:32:47.794Z,5.60
2018-12-06T01:37:56.623Z,5.70
2018-12-06T01:42:59.459Z,5.80
2018-12-06T02:00:40.871Z,5.70
2018-12-06T02:18:36.839Z,5.60
2018-12-06T02:23:40.895Z,5.70
2018-12-06T02:28:49.959Z,5.70
2018-12-06T02:33:58.937Z,5.70
2018-12-06T02:39:09.703Z,5.80
2018-12-06T03:21:47.676Z,5.50
2018-12-06T03:26:50.619Z,5.70
2018-12-06T03:31:59.577Z,5.70
2018-12-06T03:37:08.491Z,5.70
2018-12-06T03:42:17.323Z,5.80
2018-12-06T04:31:08.337Z,5.90
2018-12-06T04:36:13.412Z,6.00
2018-12-06T05:06:25.216Z,5.70
2018-12-06T05:11:28.207Z,5.80
2018-12-06T05:16:33.817Z,5.90
2018-12-06T05:21:42.952Z,5.90
2018-12-06T05:26:46.294Z,5.90
2018-12-06T05:31:49.882Z,5.80
2018-12-06T05:55:33.095Z,5.50
2018-12-06T06:00:40.894Z,5.60
2018-12-06T06:05:45.818Z,5.50
2018-12-06T06:10:52.248Z,5.50
2018-12-06T06:16:01.010Z,5.50
2018-12-06T06:21:04.315Z,5.60
2018-12-06T06:26:10.341Z,5.70
2018-12-06T06:31:19.515Z,5.80
2018-12-06T06:36:22.822Z,5.80
2018-12-06T06:41:32.025Z,5.80
2018-12-06T06:46:40.890Z,5.90
2018-12-06T06:51:49.983Z,6.00
2018-12-06T06:56:52.966Z,6.00
2018-12-06T07:02:01.763Z,6.10
2018-12-06T07:07:11.149Z,6.10
2018-12-06T07:12:20.223Z,6.20
2018-12-06T07:17:23.249Z,6.30
2018-12-06T07:22:32.213Z,6.30
2018-12-06T07:27:41.051Z,6.50
2018-12-06T07:32:49.900Z,6.50
2018-12-06T07:37:52.808Z,6.60
2018-12-06T07:43:01.527Z,6.70
2018-12-06T07:48:10.525Z,6.70
2018-12-06T07:53:19.546Z,6.80
2018-12-06T07:58:22.403Z,6.80
2018-12-06T08:03:31.407Z,6.80
2018-12-06T08:08:40.400Z,6.90
2018-12-06T08:13:49.176Z,6.80
2018-12-06T08:18:52.203Z,6.90
2018-12-06T08:24:01.140Z,6.90
2018-12-06T08:29:10.156Z,7.00
2018-12-06T08:34:19.131Z,7.00
2018-12-06T08:39:22.023Z,7.00
2018-12-06T08:44:25.840Z,6.90
2018-12-06T08:49:29.371Z,7.10
2018-12-06T08:54:32.342Z,7.20
2018-12-06T08:59:35.914Z,7.20
2018-12-06T09:04:39.873Z,7.40
2018-12-06T09:09:48.542Z,7.40
2018-12-06T09:14:54.579Z,7.50
2018-12-06T09:19:59.451Z,7.60
2018-12-06T09:25:05.506Z,7.70
2018-12-06T09:30:09.345Z,8.00
2018-12-06T09:35:12.522Z,8.10
2018-12-06T09:40:21.475Z,8.20
2018-12-06T09:45:27.357Z,8.20
2018-12-06T09:50:30.891Z,8.20
2018-12-06T09:55:34.420Z,8.20
2018-12-06T10:00:37.480Z,8.00
2018-12-06T10:05:46.143Z,8.10
2018-12-06T10:10:54.979Z,8.30
2018-12-06T10:16:00.887Z,8.30
2018-12-06T10:21:04.190Z,8.40
2018-12-06T10:26:10.951Z,8.60
2018-12-06T10:31:18.211Z,8.50
2018-12-06T10:36:22.063Z,8.80
2018-12-06T10:41:25.882Z,9.00
2018-12-06T10:46:32.567Z,9.00
2018-12-06T10:51:42.075Z,8.90
2018-12-06T10:56:46.029Z,8.60
2018-12-06T11:01:56.572Z,8.60
2018-12-06T11:07:01.954Z,8.80
2018-12-06T11:12:09.561Z,8.90
2018-12-06T11:17:19.108Z,8.80
2018-12-06T11:22:25.213Z,8.50
2018-12-06T11:27:28.130Z,8.50
2018-12-06T11:32:32.069Z,8.80
2018-12-06T11:37:38.192Z,9.20
2018-12-06T11:42:43.313Z,9.50
2018-12-06T11:47:47.986Z,9.70
2018-12-06T11:52:53.017Z,10.10
2018-12-06T11:57:56.946Z,10.30
2018-12-06T12:03:00.617Z,10.40
2018-12-06T12:08:08.466Z,10.50
2018-12-06T12:13:15.056Z,10.70
2018-12-06T12:18:23.016Z,10.90
2018-12-06T12:23:31.915Z,10.90
2018-12-06T12:28:37.962Z,10.90
2018-12-06T12:33:41.626Z,10.80
2018-12-06T12:38:47.577Z,10.80
2018-12-06T12:43:56.211Z,10.80
2018-12-06T12:48:59.681Z,10.70
2018-12-06T12:54:08.567Z,10.60
2018-12-06T12:59:17.634Z,10.80
2018-12-06T13:04:22.648Z,10.90
2018-12-06T13:09:25.560Z,11.00
2018-12-06T13:14:28.935Z,11.00
2018-12-06T13:19:35.530Z,10.90
2018-12-06T13:24:39.611Z,10.80
2018-12-06T13:29:43.503Z,10.70
2018-12-06T13:34:48.443Z,10.70
2018-12-06T13:39:51.445Z,10.70
2018-12-06T13:44:55.062Z,10.70
2018-12-06T13:50:01.610Z,10.70
2018-12-06T13:55:05.178Z,10.80
2018-12-06T14:00:09.080Z,10.80
2018-12-06T14:05:13.643Z,10.80
2018-12-06T14:10:19.505Z,10.70
2018-12-06T14:15:22.487Z,10.80
2018-12-06T14:20:26.174Z,10.90
2018-12-06T14:25:31.059Z,11.00
2018-12-06T14:30:34.612Z,10.90
2018-12-06T14:35:38.034Z,10.90
2018-12-06T14:40:46.964Z,11.00
2018-12-06T14:45:56.219Z,10.90
2018-12-06T14:51:04.989Z,10.90
2018-12-06T14:56:13.831Z,10.90
2018-12-06T15:01:16.714Z,10.80
2018-12-06T15:06:25.529Z,10.70
2018-12-06T15:11:34.378Z,10.60
2018-12-06T15:16:43.390Z,10.70
2018-12-06T15:21:46.304Z,10.70
2018-12-06T15:26:55.555Z,10.80
2018-12-06T15:32:04.259Z,10.80
2018-12-06T15:37:13.081Z,10.80
2018-12-06T15:42:16.060Z,10.80
2018-12-06T15:47:25.129Z,10.80
2018-12-06T15:52:33.938Z,10.80
2018-12-06T15:57:42.890Z,10.80
2018-12-06T16:02:45.845Z,10.70
2018-12-06T16:07:54.507Z,10.60
2018-12-06T16:13:03.268Z,10.60
2018-12-06T16:18:12.204Z,10.70
2018-12-06T16:23:15.079Z,10.60
2018-12-06T16:28:24.736Z,10.60
2018-12-06T16:33:34.336Z,10.60
2018-12-06T16:38:43.445Z,10.60
2018-12-06T16:43:49.887Z,10.60
2018-12-06T16:48:52.785Z,10.60
2018-12-06T16:53:59.713Z,10.60
2018-12-06T16:59:04.728Z,10.60
2018-12-06T17:04:07.660Z,10.60
2018-12-06T17:09:10.580Z,10.70
2018-12-06T17:14:13.595Z,10.80
2018-12-06T17:19:16.491Z,10.80
2018-12-06T17:24:20.074Z,10.70
2018-12-06T17:29:23.108Z,10.70
2018-12-06T17:34:25.992Z,10.70
2018-12-06T17:39:29.626Z,10.80
2018-12-06T17:44:32.567Z,10.80
2018-12-06T17:49:35.495Z,10.80
2018-12-06T17:54:39.200Z,10.80
2018-12-06T17:59:44.199Z,10.80
2018-12-06T18:04:48.675Z,10.80
2018-12-06T18:09:53.792Z,10.80
2018-12-06T18:15:00.495Z,10.90
2018-12-06T18:20:04.610Z,10.90
2018-12-06T18:25:07.516Z,10.90
2018-12-06T18:30:10.671Z,10.90
2018-12-06T18:35:13.630Z,10.90
2018-12-06T18:40:17.424Z,10.80
2018-12-06T18:45:20.512Z,10.60
2018-12-06T18:50:58.896Z,10.60
2018-12-06T18:56:01.866Z,10.50
2018-12-06T19:01:07.782Z,10.50
2018-12-06T19:06:10.825Z,10.40
2018-12-06T19:11:15.714Z,10.40
2018-12-06T19:16:20.195Z,10.30
2018-12-06T19:21:24.596Z,10.30
2018-12-06T19:26:28.058Z,10.30
2018-12-06T19:31:31.162Z,10.40
2018-12-06T19:36:35.908Z,10.40
2018-12-06T19:41:40.784Z,10.40
2018-12-06T19:46:46.854Z,10.40
2018-12-06T19:51:49.829Z,10.40
2018-12-06T19:56:54.712Z,10.40
2018-12-06T20:01:58.297Z,10.40
2018-12-06T20:07:01.282Z,10.40
2018-12-06T20:12:04.434Z,10.50
2018-12-06T20:17:08.162Z,10.50
2018-12-06T20:22:11.960Z,10.50
2018-12-06T20:27:15.019Z,10.60
2018-12-06T20:32:21.027Z,10.70
2018-12-06T20:37:25.839Z,10.70
2018-12-06T20:42:29.877Z,10.80
2018-12-06T20:47:33.950Z,10.80
2018-12-06T20:52:37.867Z,10.80
2018-12-06T20:57:41.827Z,10.70
2018-12-06T21:02:44.868Z,10.70
2018-12-06T21:07:49.882Z,10.80
2018-12-06T21:12:54.862Z,10.80
2018-12-06T21:18:01.845Z,10.90
2018-12-06T21:23:05.143Z,11.10
2018-12-06T21:28:09.252Z,11.20
2018-12-06T21:33:12.647Z,11.30
2018-12-06T21:38:19.820Z,11.40
2018-12-06T21:43:26.407Z,11.50
2018-12-06T21:48:31.442Z,11.60
2018-12-06T21:53:35.241Z,11.60
2018-12-06T21:58:38.247Z,11.60
2018-12-06T22:03:42.045Z,11.70
2018-12-06T22:08:51.467Z,11.70
2018-12-06T22:13:57.668Z,11.70
2018-12-06T22:19:06.647Z,11.80
2018-12-06T22:24:12.835Z,11.80
2018-12-06T22:29:17.001Z,11.80
2018-12-06T22:34:26.190Z,11.80
2018-12-06T22:39:29.883Z,11.80
2018-12-06T22:44:36.851Z,11.80
2018-12-06T22:49:41.291Z,11.80
2018-12-06T22:54:50.590Z,11.70
2018-12-06T22:59:53.902Z,11.70
2018-12-06T23:04:57.447Z,11.70
2018-12-06T23:10:01.374Z,11.60
2018-12-06T23:15:05.295Z,11.70
2018-12-06T23:20:12.000Z,11.60
2018-12-06T23:25:18.023Z,11.70
2018-12-06T23:30:21.126Z,11.70
2018-12-06T23:35:24.806Z,11.80
2018-12-06T23:40:27.930Z,11.80
2018-12-06T23:45:31.402Z,11.80
2018-12-06T23:50:35.927Z,11.80
2018-12-06T23:55:38.920Z,11.90
